Sulaymaniyah International Airport
ORSU : now visible

Airfield :











YOU CAN JOIN US ON...

 
LOGIN :

Register | Disclaimer

   EN    FR    IT 

 









Legend :    VFR   Marginal VFR   IFR   Intensive IFR   Very Intensive IFR
Visi :
Ceiling :
>= 8 km
>= 3000ft
5 to 8 km
1000 to 3000 ft
1500m to 5 km
500 to 1000 ft
800 to 1500m
200 to 500 ft
< 800m
< 200 ft
Symbols :   Thunderstorms  Fog  Heavy snow  Heavy precipitations  Wind > 20 kt






- Airport Elevation : 2494 ft
- IATA code : OSO


ORSU - Sulaymaniyah International

CURRENT METAR :
  • 210210Z VRB02KT 0800 FG VV/// 09/09 Q1019

EXPIRED METARs :
  • 210200Z VRB02KT 2000 BR FEW005 BKN030 09/09 Q1018
  • 210100Z VRB02KT 2000 BR SCT010 BKN030 09/09 Q1018

TAF TAF ORSU
Valid from the 21 at 00:00 until the 22 at 00:00 UTC


202300Z 2100/2124 VRB03KT 3000 -RA BR BKN035 BKN070
PROB30
TEMPO 2102/2105 1000 BR NSC
BECMG 2105/2107 24005KT 9999 SCT045 SCT200
TEMPO 2110/2114 -RA



MET'MAP, your aeronautical weather chart ! - Copyright ORBIFLY December 2007 - Disclaimer

ORBIFLY MET'MAP TEAM :

Programming & Development : Alexandra Zaïnal
Concept & original design : Baudouin d'Aumeries
Assistance for programming : Marc-Olivier Méhu
Technical & hardware support : Manuel Goepfert

Contact : metmap@orbifly.com




SOURCES & CREDITS :

   NOAA       Earth
Advisory